Captain Sam — WDB5536 — position and weather

sailwx.info

Track history (hours):
 
Tides and Currents Weather Stations Pressure Air Temp Water Temp Dewpoint Dewpoint Depression Visibility Wind Speed Wind Dir Waves Ship Positions

Captain Sam

Owner: SMITH MARINE TOWING, MORGAN CITY, LA. More information available from US FCC via Universal Licensing System and Coast Guard Vessel Documentation Center.

Last reported at 2018-Jun-17 17:50 UTC. Time now 2018-Jun-18 15:03 UTC.
Position N 34°13' W 077°57'.

; draft 4 m.

Type: Ship. MMSI: 366910710.

Date/timePositionNaut miles runAvg speedWind from/ knotsBaromVisibWave heightAir tempDewpointWater temp
2018-Jun-17 17:50N 34°13' W 077°57'1 1.6
2018-Jun-17 17:30N 34°14' W 077°57'0 0.0
2018-Jun-17 17:00N 34°14' W 077°57'0 0.0
2018-Jun-17 16:30N 34°14' W 077°57'54 1.9
2018-Jun-16 12:18N 34°36' W 076°58'1 4.8
2018-Jun-16 12:00N 34°36' W 076°56'2 4.7
2018-Jun-16 11:30N 34°36' W 076°53'2 5.0
2018-Jun-16 11:00N 34°36' W 076°50'2 4.9
2018-Jun-16 10:30N 34°36' W 076°47'3 5.0
2018-Jun-16 10:00N 34°35' W 076°44'3 5.1
2018-Jun-16 09:30N 34°34' W 076°42'4 5.1
2018-Jun-16 08:43N 34°32' W 076°37'1 5.2
2018-Jun-16 08:30N 34°31' W 076°36'3 5.1
2018-Jun-16 08:00N 34°29' W 076°34'2 4.8
2018-Jun-16 07:30N 34°28' W 076°32'4 4.0
2018-Jun-16 06:38N 34°27' W 076°27'1 5.1
2018-Jun-16 06:30N 34°28' W 076°27'2 4.9
2018-Jun-16 06:00N 34°30' W 076°26'2 4.6
2018-Jun-16 05:30N 34°32' W 076°25'2 4.5
2018-Jun-16 05:00N 34°34' W 076°24'3 4.7
2018-Jun-16 04:27N 34°36' W 076°22'21 4.7
2018-Jun-15 23:59N 34°54' W 076°08'  
2018-Jun-13 03:27N 38°55' W 074°47'16 3.9
2018-Jun-12 23:29N 39°09' W 074°37'16 1.5
2018-Jun-12 12:46N 39°22' W 074°26'0 0.0
2018-Jun-12 12:30N 39°22' W 074°26'0 0.0
2018-Jun-12 11:57N 39°22' W 074°26'1 1.5
2018-Jun-12 11:30N 39°23' W 074°25'0 0.4
2018-Jun-12 11:00N 39°23' W 074°25'1 1.1
2018-Jun-12 10:30N 39°22' W 074°25'1 1.6
2018-Jun-12 10:00N 39°22' W 074°26'0 0.0
2018-Jun-12 08:51N 39°22' W 074°26'0 0.0
2018-Jun-12 08:19N 39°22' W 074°26'0 0.0
2018-Jun-12 08:00N 39°22' W 074°26'0 0.0
2018-Jun-12 06:59N 39°22' W 074°26'0 0.0
2018-Jun-12 06:30N 39°22' W 074°26'0 0.0
2018-Jun-12 05:57N 39°22' W 074°26'0 0.0
2018-Jun-12 05:30N 39°22' W 074°26'0 0.0
2018-Jun-12 04:44N 39°22' W 074°26'0 0.0
2018-Jun-12 03:28N 39°22' W 074°26'0 0.0
2018-Jun-12 02:37N 39°22' W 074°26'0 0.0
2018-Jun-12 02:12N 39°22' W 074°26'0 0.0
2018-Jun-12 02:00N 39°22' W 074°26'0 0.0
2018-Jun-12 01:13N 39°22' W 074°26'0 0.0
2018-Jun-12 00:45N 39°22' W 074°26'0 0.0
2018-Jun-12 00:30N 39°22' W 074°26'0 0.0
2018-Jun-12 00:00N 39°22' W 074°26'0 0.0
2018-Jun-11 05:06N 39°22' W 074°26'0 0.0
2018-Jun-11 03:19N 39°22' W 074°26'0 0.0
2018-Jun-10 13:40N 39°22' W 074°26'0 0.0
2018-Jun-10 13:29N 39°22' W 074°26'0 0.0
2018-Jun-10 12:18N 39°22' W 074°26'0 0.0
2018-Jun-10 11:58N 39°22' W 074°26'0 0.0
2018-Jun-10 11:29N 39°22' W 074°26'0 0.0
2018-Jun-10 10:59N 39°22' W 074°26'0 0.0
2018-Jun-09 05:41N 39°22' W 074°26'1 0.1
2018-Jun-08 13:27N 39°24' W 074°26'0 0.0
2018-Jun-08 13:00N 39°24' W 074°26'0 0.0
2018-Jun-08 12:30N 39°24' W 074°26'0 0.0
2018-Jun-08 12:00N 39°24' W 074°26'0 0.0
2018-Jun-08 11:28N 39°24' W 074°26'0 0.0
2018-Jun-08 10:59N 39°24' W 074°26'0 0.0
2018-Jun-08 10:30N 39°24' W 074°26'0 0.0
2018-Jun-08 10:00N 39°24' W 074°26'0 0.0
2018-Jun-08 09:31N 39°24' W 074°26'0 0.0
2018-Jun-08 09:00N 39°24' W 074°26'0 0.0
2018-Jun-08 08:30N 39°24' W 074°26'0 0.0
2018-Jun-08 07:58N 39°24' W 074°26'0 0.0
2018-Jun-08 07:30N 39°24' W 074°26'0 0.0
2018-Jun-08 07:00N 39°24' W 074°26'0 0.0
2018-Jun-08 06:30N 39°24' W 074°26'0 0.0
2018-Jun-08 06:00N 39°24' W 074°26'0 0.0
2018-Jun-08 05:30N 39°24' W 074°26'0 0.0
2018-Jun-08 05:01N 39°24' W 074°26'0 0.0
2018-Jun-08 04:30N 39°24' W 074°26'0 0.0
2018-Jun-08 04:00N 39°24' W 074°26'0 0.0
2018-Jun-08 03:31N 39°24' W 074°26'3 5.6
2018-Jun-08 03:00N 39°21' W 074°24'4 7.2
2018-Jun-08 02:31N 39°18' W 074°26'4 8.3
2018-Jun-08 02:00N 39°15' W 074°30'4 8.1
2018-Jun-08 01:30N 39°12' W 074°34'4 8.3
2018-Jun-08 00:59N 39°09' W 074°37'4 8.3
2018-Jun-08 00:28N 39°05' W 074°40'4 8.7
2018-Jun-08 00:00N 39°02' W 074°43'4 8.8
2018-Jun-07 23:30N 38°58' W 074°45'5 9.0
2018-Jun-07 23:00N 38°54' W 074°47'4 8.9
2018-Jun-07 22:30N 38°50' W 074°49'5 8.9
2018-Jun-07 21:58N 38°45' W 074°51'4 8.9
2018-Jun-07 21:30N 38°41' W 074°53'6 9.0
2018-Jun-07 20:52N 38°36' W 074°56'  
Track history (hours):
 
Tides and Currents Weather Stations Pressure Air Temp Water Temp Dewpoint Dewpoint Depression Visibility Wind Speed Wind Dir Waves Ship Positions

Captain Sam

Owner: SMITH MARINE TOWING, MORGAN CITY, LA. More information available from US FCC via Universal Licensing System and Coast Guard Vessel Documentation Center.

Last reported at 2018-Jun-17 17:50 UTC. Time now 2018-Jun-18 15:03 UTC.
Position N 34°13' W 077°57'.

; draft 4 m.

Type: Ship. MMSI: 366910710.

Date/timePositionNaut miles runAvg speedWind from/ knotsBaromVisibWave heightAir tempDewpointWater temp
2018-Jun-17 17:50N 34°13' W 077°57'1 1.6
2018-Jun-17 17:30N 34°14' W 077°57'0 0.0
2018-Jun-17 17:00N 34°14' W 077°57'0 0.0
2018-Jun-17 16:30N 34°14' W 077°57'54 1.9
2018-Jun-16 12:18N 34°36' W 076°58'1 4.8
2018-Jun-16 12:00N 34°36' W 076°56'2 4.7
2018-Jun-16 11:30N 34°36' W 076°53'2 5.0
2018-Jun-16 11:00N 34°36' W 076°50'2 4.9
2018-Jun-16 10:30N 34°36' W 076°47'3 5.0
2018-Jun-16 10:00N 34°35' W 076°44'3 5.1
2018-Jun-16 09:30N 34°34' W 076°42'4 5.1
2018-Jun-16 08:43N 34°32' W 076°37'1 5.2
2018-Jun-16 08:30N 34°31' W 076°36'3 5.1
2018-Jun-16 08:00N 34°29' W 076°34'2 4.8
2018-Jun-16 07:30N 34°28' W 076°32'4 4.0
2018-Jun-16 06:38N 34°27' W 076°27'1 5.1
2018-Jun-16 06:30N 34°28' W 076°27'2 4.9
2018-Jun-16 06:00N 34°30' W 076°26'2 4.6
2018-Jun-16 05:30N 34°32' W 076°25'2 4.5
2018-Jun-16 05:00N 34°34' W 076°24'3 4.7
2018-Jun-16 04:27N 34°36' W 076°22'21 4.7
2018-Jun-15 23:59N 34°54' W 076°08'  
2018-Jun-13 03:27N 38°55' W 074°47'16 3.9
2018-Jun-12 23:29N 39°09' W 074°37'16 1.5
2018-Jun-12 12:46N 39°22' W 074°26'0 0.0
2018-Jun-12 12:30N 39°22' W 074°26'0 0.0
2018-Jun-12 11:57N 39°22' W 074°26'1 1.5
2018-Jun-12 11:30N 39°23' W 074°25'0 0.4
2018-Jun-12 11:00N 39°23' W 074°25'1 1.1
2018-Jun-12 10:30N 39°22' W 074°25'1 1.6
2018-Jun-12 10:00N 39°22' W 074°26'0 0.0
2018-Jun-12 08:51N 39°22' W 074°26'0 0.0
2018-Jun-12 08:19N 39°22' W 074°26'0 0.0
2018-Jun-12 08:00N 39°22' W 074°26'0 0.0
2018-Jun-12 06:59N 39°22' W 074°26'0 0.0
2018-Jun-12 06:30N 39°22' W 074°26'0 0.0
2018-Jun-12 05:57N 39°22' W 074°26'0 0.0
2018-Jun-12 05:30N 39°22' W 074°26'0 0.0
2018-Jun-12 04:44N 39°22' W 074°26'0 0.0
2018-Jun-12 03:28N 39°22' W 074°26'0 0.0
2018-Jun-12 02:37N 39°22' W 074°26'0 0.0
2018-Jun-12 02:12N 39°22' W 074°26'0 0.0
2018-Jun-12 02:00N 39°22' W 074°26'0 0.0
2018-Jun-12 01:13N 39°22' W 074°26'0 0.0
2018-Jun-12 00:45N 39°22' W 074°26'0 0.0
2018-Jun-12 00:30N 39°22' W 074°26'0 0.0
2018-Jun-12 00:00N 39°22' W 074°26'0 0.0
2018-Jun-11 05:06N 39°22' W 074°26'0 0.0
2018-Jun-11 03:19N 39°22' W 074°26'0 0.0
2018-Jun-10 13:40N 39°22' W 074°26'0 0.0
2018-Jun-10 13:29N 39°22' W 074°26'0 0.0
2018-Jun-10 12:18N 39°22' W 074°26'0 0.0
2018-Jun-10 11:58N 39°22' W 074°26'0 0.0
2018-Jun-10 11:29N 39°22' W 074°26'0 0.0
2018-Jun-10 10:59N 39°22' W 074°26'0 0.0
2018-Jun-09 05:41N 39°22' W 074°26'1 0.1
2018-Jun-08 13:27N 39°24' W 074°26'0 0.0
2018-Jun-08 13:00N 39°24' W 074°26'0 0.0
2018-Jun-08 12:30N 39°24' W 074°26'0 0.0
2018-Jun-08 12:00N 39°24' W 074°26'0 0.0
2018-Jun-08 11:28N 39°24' W 074°26'0 0.0
2018-Jun-08 10:59N 39°24' W 074°26'0 0.0
2018-Jun-08 10:30N 39°24' W 074°26'0 0.0
2018-Jun-08 10:00N 39°24' W 074°26'0 0.0
2018-Jun-08 09:31N 39°24' W 074°26'0 0.0
2018-Jun-08 09:00N 39°24' W 074°26'0 0.0
2018-Jun-08 08:30N 39°24' W 074°26'0 0.0
2018-Jun-08 07:58N 39°24' W 074°26'0 0.0
2018-Jun-08 07:30N 39°24' W 074°26'0 0.0
2018-Jun-08 07:00N 39°24' W 074°26'0 0.0
2018-Jun-08 06:30N 39°24' W 074°26'0 0.0
2018-Jun-08 06:00N 39°24' W 074°26'0 0.0
2018-Jun-08 05:30N 39°24' W 074°26'0 0.0
2018-Jun-08 05:01N 39°24' W 074°26'0 0.0
2018-Jun-08 04:30N 39°24' W 074°26'0 0.0
2018-Jun-08 04:00N 39°24' W 074°26'0 0.0
2018-Jun-08 03:31N 39°24' W 074°26'3 5.6
2018-Jun-08 03:00N 39°21' W 074°24'4 7.2
2018-Jun-08 02:31N 39°18' W 074°26'4 8.3
2018-Jun-08 02:00N 39°15' W 074°30'4 8.1
2018-Jun-08 01:30N 39°12' W 074°34'4 8.3
2018-Jun-08 00:59N 39°09' W 074°37'4 8.3
2018-Jun-08 00:28N 39°05' W 074°40'4 8.7
2018-Jun-08 00:00N 39°02' W 074°43'4 8.8
2018-Jun-07 23:30N 38°58' W 074°45'5 9.0
2018-Jun-07 23:00N 38°54' W 074°47'4 8.9
2018-Jun-07 22:30N 38°50' W 074°49'5 8.9
2018-Jun-07 21:58N 38°45' W 074°51'4 8.9
2018-Jun-07 21:30N 38°41' W 074°53'6 9.0
2018-Jun-07 20:52N 38°36' W 074°56'  

Dump ship's entire track history